createdAt,value
2022-07-29T00:03:43.259Z,3.80
2022-07-29T00:09:11.588Z,3.60
2022-07-29T00:14:56.364Z,3.70
2022-07-29T00:20:31.894Z,3.40
2022-07-29T00:26:08.852Z,3.80
2022-07-29T00:31:39.479Z,3.70
2022-07-29T00:37:22.085Z,3.40
2022-07-29T00:43:02.761Z,3.30
2022-07-29T00:48:39.802Z,3.40
2022-07-29T00:54:08.865Z,3.10
2022-07-29T00:59:45.496Z,3.10
2022-07-29T01:05:21.354Z,2.90
2022-07-29T01:10:50.440Z,3.00
2022-07-29T01:16:51.609Z,2.90
2022-07-29T01:22:54.296Z,2.80
2022-07-29T01:29:12.559Z,3.00
2022-07-29T01:34:54.584Z,2.80
2022-07-29T01:40:37.369Z,2.90
2022-07-29T01:46:22.297Z,2.50
2022-07-29T01:52:06.256Z,2.50
2022-07-29T01:57:40.753Z,2.10
2022-07-29T02:03:37.983Z,2.40
2022-07-29T02:09:11.621Z,2.00
2022-07-29T02:14:44.262Z,1.90
2022-07-29T02:20:14.816Z,1.90
2022-07-29T02:26:10.291Z,1.70
2022-07-29T02:31:43.380Z,1.90
2022-07-29T02:37:17.781Z,1.60
2022-07-29T02:42:50.805Z,1.80
2022-07-29T02:49:12.214Z,1.80
2022-07-29T02:55:28.930Z,1.60
2022-07-29T03:01:04.798Z,1.80
2022-07-29T03:07:23.247Z,1.90
2022-07-29T03:13:14.136Z,1.50
2022-07-29T03:18:54.455Z,1.70
2022-07-29T03:24:33.613Z,1.70
2022-07-29T03:29:56.362Z,2.10
2022-07-29T03:35:22.099Z,1.70
2022-07-29T03:41:02.419Z,1.80
2022-07-29T03:53:01.351Z,1.60
2022-07-29T03:58:37.629Z,1.60
2022-07-29T04:04:14.494Z,2.00
2022-07-29T04:09:42.447Z,1.80
2022-07-29T04:15:32.026Z,1.70
2022-07-29T04:21:01.932Z,2.10
2022-07-29T04:26:42.919Z,2.30
2022-07-29T04:32:13.245Z,2.80
2022-07-29T04:37:35.849Z,2.20
2022-07-29T04:43:21.238Z,2.60
2022-07-29T04:48:50.926Z,3.20
2022-07-29T04:54:37.012Z,4.00
2022-07-29T05:00:13.085Z,3.60
2022-07-29T05:05:43.308Z,3.30
2022-07-29T05:16:50.581Z,3.20
2022-07-29T05:22:15.073Z,3.50
2022-07-29T05:27:56.416Z,3.70
2022-07-29T05:33:35.835Z,3.50
2022-07-29T05:39:01.287Z,3.70
2022-07-29T05:44:40.929Z,3.60
2022-07-29T05:50:09.885Z,3.60
2022-07-29T05:55:35.394Z,3.10
2022-07-29T06:01:06.775Z,2.60
2022-07-29T06:06:35.468Z,2.90
2022-07-29T06:12:02.215Z,3.00
2022-07-29T06:17:35.302Z,2.70
2022-07-29T06:22:59.813Z,3.40
2022-07-29T06:28:39.144Z,3.20
2022-07-29T06:34:05.124Z,2.90
2022-07-29T06:39:42.774Z,2.80
2022-07-29T06:45:17.293Z,2.30
2022-07-29T06:50:40.917Z,2.30
2022-07-29T06:56:09.464Z,2.50
2022-07-29T07:01:34.561Z,2.00
2022-07-29T07:06:56.950Z,2.30
2022-07-29T07:12:22.209Z,2.50
2022-07-29T07:17:59.485Z,2.80
2022-07-29T07:23:21.596Z,2.90
2022-07-29T07:28:43.481Z,3.00
2022-07-29T07:34:16.493Z,2.80
2022-07-29T07:39:50.453Z,2.30
2022-07-29T07:45:16.456Z,2.30
2022-07-29T07:50:38.950Z,2.70
2022-07-29T07:56:21.181Z,2.60
2022-07-29T08:01:47.957Z,3.10
2022-07-29T08:07:21.283Z,4.20
2022-07-29T08:12:43.485Z,2.70
2022-07-29T08:18:08.732Z,2.90
2022-07-29T08:23:51.498Z,3.70
2022-07-29T08:29:37.972Z,3.20
2022-07-29T08:35:02.185Z,3.40
2022-07-29T08:40:30.766Z,2.90
2022-07-29T08:45:57.969Z,2.80
2022-07-29T08:51:24.394Z,2.70
2022-07-29T08:56:52.640Z,2.60
2022-07-29T09:02:30.784Z,2.60
2022-07-29T09:07:54.234Z,3.10
2022-07-29T09:13:16.542Z,3.00
2022-07-29T09:18:48.651Z,2.70
2022-07-29T09:24:14.286Z,2.60
2022-07-29T09:29:38.188Z,2.70
2022-07-29T09:35:24.324Z,2.60
2022-07-29T09:41:09.110Z,2.80
2022-07-29T09:46:33.971Z,2.90
2022-07-29T09:52:10.040Z,2.90
2022-07-29T09:57:34.642Z,3.00
2022-07-29T10:03:02.695Z,9.60
2022-07-29T10:08:38.785Z,2.90
2022-07-29T10:14:06.787Z,2.60
2022-07-29T10:19:32.193Z,2.80
2022-07-29T10:24:55.114Z,2.70
2022-07-29T10:30:22.228Z,2.50
2022-07-29T10:35:58.925Z,3.10
2022-07-29T10:42:01.828Z,2.80
2022-07-29T10:47:35.133Z,3.20
2022-07-29T10:53:00.647Z,2.70
2022-07-29T10:58:25.312Z,3.10
2022-07-29T11:03:53.645Z,2.80
2022-07-29T11:09:35.223Z,3.00
2022-07-29T11:15:03.439Z,2.60
2022-07-29T11:20:39.457Z,2.70
2022-07-29T11:26:26.466Z,2.90
2022-07-29T11:31:57.108Z,3.30
2022-07-29T11:37:28.042Z,2.80
2022-07-29T11:42:53.589Z,3.10
2022-07-29T11:48:29.098Z,3.00
2022-07-29T11:54:04.415Z,2.90
2022-07-29T11:59:49.244Z,2.90
2022-07-29T12:05:22.239Z,2.90
2022-07-29T12:11:01.483Z,3.20
2022-07-29T12:16:26.091Z,2.90
2022-07-29T12:22:12.502Z,3.00
2022-07-29T12:27:46.137Z,3.10
2022-07-29T12:33:22.369Z,3.60
2022-07-29T12:38:47.820Z,4.20
2022-07-29T12:44:10.740Z,3.80
2022-07-29T12:49:41.489Z,3.80
2022-07-29T13:00:26.959Z,3.20
2022-07-29T13:05:51.686Z,4.40
2022-07-29T13:11:30.528Z,4.80
2022-07-29T13:17:10.189Z,3.70
2022-07-29T13:22:32.582Z,3.10
2022-07-29T13:27:59.915Z,3.20
2022-07-29T13:33:31.440Z,3.20
2022-07-29T13:39:52.822Z,3.30
2022-07-29T13:45:39.134Z,3.20
2022-07-29T13:51:02.405Z,3.00
2022-07-29T13:56:27.567Z,3.20
2022-07-29T14:01:49.584Z,3.50
2022-07-29T14:07:16.346Z,3.30
2022-07-29T14:18:02.595Z,3.00
2022-07-29T14:23:24.399Z,3.30
2022-07-29T14:28:50.409Z,3.10
2022-07-29T14:34:12.861Z,2.90
2022-07-29T14:39:42.772Z,3.10
2022-07-29T14:45:09.382Z,3.10
2022-07-29T14:50:32.304Z,2.70
2022-07-29T14:55:54.359Z,3.20
2022-07-29T15:01:19.016Z,2.90
2022-07-29T15:06:40.835Z,2.80
2022-07-29T15:12:08.281Z,2.90
2022-07-29T15:17:33.559Z,2.90
2022-07-29T15:23:01.685Z,2.90
2022-07-29T15:28:24.501Z,3.10
2022-07-29T15:33:46.516Z,3.30
2022-07-29T15:39:08.652Z,3.10
2022-07-29T15:44:30.718Z,3.20
2022-07-29T15:49:55.456Z,3.50
2022-07-29T15:55:17.357Z,3.20
2022-07-29T16:00:39.542Z,3.50
2022-07-29T16:06:02.219Z,2.90
2022-07-29T16:11:24.055Z,3.20
2022-07-29T16:16:46.389Z,3.30
2022-07-29T16:22:08.869Z,3.30
2022-07-29T16:27:31.409Z,3.40
2022-07-29T16:33:00.228Z,3.50
2022-07-29T16:38:23.053Z,3.70
2022-07-29T16:43:45.763Z,4.80
2022-07-29T16:49:07.855Z,5.70
2022-07-29T16:54:29.869Z,5.70
2022-07-29T16:59:52.779Z,5.50
2022-07-29T17:05:16.088Z,6.50
2022-07-29T17:10:38.109Z,5.00
2022-07-29T17:16:00.776Z,4.70
2022-07-29T17:21:24.855Z,5.60
2022-07-29T17:26:50.356Z,4.90
2022-07-29T17:32:12.610Z,7.10
2022-07-29T17:37:37.932Z,5.30
2022-07-29T17:43:00.289Z,5.20
2022-07-29T17:48:23.177Z,4.80
2022-07-29T17:53:47.003Z,4.30
2022-07-29T17:59:10.366Z,4.80
2022-07-29T18:04:32.523Z,5.90
2022-07-29T18:10:00.057Z,5.90
2022-07-29T18:15:23.252Z,6.10
2022-07-29T18:20:48.791Z,6.40
2022-07-29T18:26:11.040Z,7.10
2022-07-29T18:31:33.760Z,5.80
2022-07-29T18:36:56.369Z,6.20
2022-07-29T18:42:18.516Z,6.30
2022-07-29T18:47:40.546Z,7.90
2022-07-29T18:53:05.038Z,5.70
2022-07-29T18:58:33.135Z,6.60
2022-07-29T19:03:54.893Z,5.80
2022-07-29T19:09:22.739Z,6.10
2022-07-29T19:14:44.870Z,6.40
2022-07-29T19:20:08.489Z,5.30
2022-07-29T19:25:31.424Z,6.30
2022-07-29T19:31:00.826Z,6.60
2022-07-29T19:36:27.852Z,7.80
2022-07-29T19:41:49.964Z,5.90
2022-07-29T19:47:19.301Z,5.90
2022-07-29T19:52:41.607Z,6.20
2022-07-29T19:58:06.915Z,7.20
2022-07-29T20:03:33.727Z,6.60
2022-07-29T20:08:58.768Z,6.70
2022-07-29T20:14:21.716Z,6.10
2022-07-29T20:19:43.984Z,7.00
2022-07-29T20:25:10.107Z,7.20
2022-07-29T20:30:34.333Z,6.90
2022-07-29T20:36:08.536Z,7.10
2022-07-29T20:41:30.370Z,10.80
2022-07-29T20:46:57.636Z,13.40
2022-07-29T20:52:20.088Z,15.70
2022-07-29T20:57:41.746Z,16.60
2022-07-29T21:03:04.410Z,14.20
2022-07-29T21:08:29.503Z,12.20
2022-07-29T21:13:54.324Z,11.60
2022-07-29T21:19:16.886Z,11.60
2022-07-29T21:24:42.188Z,11.10
2022-07-29T21:30:08.547Z,10.50
2022-07-29T21:36:06.356Z,12.40
2022-07-29T21:41:14.984Z,12.00
2022-07-29T21:46:45.273Z,11.90
2022-07-29T21:52:08.917Z,12.10
2022-07-29T21:57:32.057Z,11.10
2022-07-29T22:03:07.953Z,11.80
2022-07-29T22:08:30.180Z,12.10
2022-07-29T22:13:52.368Z,10.00
2022-07-29T22:19:15.500Z,10.20
2022-07-29T22:25:00.537Z,10.70
2022-07-29T22:30:30.339Z,12.70
2022-07-29T22:35:52.565Z,9.00
2022-07-29T22:41:14.848Z,9.70
2022-07-29T22:46:38.193Z,9.30
2022-07-29T22:52:00.523Z,8.00
2022-07-29T22:57:22.379Z,8.50
2022-07-29T23:02:44.581Z,8.60
2022-07-29T23:08:30.357Z,8.10
2022-07-29T23:14:29.947Z,6.70
2022-07-29T23:25:44.328Z,7.10
2022-07-29T23:31:13.773Z,6.70
2022-07-29T23:36:38.883Z,5.70
2022-07-29T23:42:09.970Z,6.00
2022-07-29T23:53:13.395Z,5.00
2022-07-29T23:58:40.300Z,3.90
